Weather at Islay Airport

Public forecast

Using degrees Celsius for public forecast. Weather courtesy of forecast.io.

Current aviation weather report (METAR) for Islay Airport

2024/05/22 17:20 (retrieved 28 minutes ago)

EGPI 221720Z 36024KT 9999 BKN009 12/10 Q1010

Closest aviation forecast (TAF) to Islay Airport

Closest forecast is Glasgow Prestwick Airport, 57.7 nm (106.8 km) E.

2024/05/22 12:00 (retrieved 6 hours ago)

TAF EGPK 221055Z 2212/2312 31009KT 9999 SCT015 TEMPO 2212/2301 5000 RA SHRA BKN012 PROB40 TEMPO 2215/2221 3000 +RA BKN008 TEMPO 2218/2312 33015G25KT PROB40 TEMPO 2301/2312 7000 -RA BKN008